Overview Statistics Trail Chart Weather Telemetry Raw packets
 

This is the latest recevied weather packets stored in our database for station/object DK6GC-10. If no packets are shown the sender has not sent any weather packets the latest 10 day(s).

<< 12 13 14 15 16 17 18 >>
Time Temp. Humidity Pressure Rain* Wind** Luminosity Snow
1788399017 13.33° C 91% 1023.9 hPa - - - -
1788398117 13.33° C 92% 1023.9 hPa - - - -
1788397217 13.89° C 90% 1023.7 hPa - - - -
1788396317 13.33° C 92% 1023.6 hPa - - - -
1788395416 13.33° C 91% 1023.7 hPa - - - -
1788394516 13.89° C 90% 1023.9 hPa - - - -
1788393621 13.89° C 89% 1024 hPa - - - -
1788392721 13.89° C 90% 1023.9 hPa - - - -
1788391820 14.44° C 88% 1023.9 hPa - - - -
1788390920 14.44° C 88% 1023.7 hPa - - - -
1788390020 14.44° C 86% 1023.6 hPa - - - -
1788389120 14.44° C 85% 1023.7 hPa - - - -
1788388220 15° C 84% 1023.7 hPa - - - -
1788387320 15° C 84% 1023.7 hPa - - - -
1788386419 15° C 83% 1023.5 hPa - - - -
1788385519 15.56° C 80% 1023.5 hPa - - - -
1788384619 15.56° C 82% 1023.3 hPa - - - -
1788383719 16.11° C 81% 1023.2 hPa - - - -
1788382819 16.11° C 81% 1023.2 hPa - - - -
1788381919 16.67° C 77% 1023.2 hPa - - - -
1788381018 16.67° C 79% 1023.1 hPa - - - -
1788380118 16.67° C 78% 1023.1 hPa - - - -
1788379220 16.67° C 79% 1023 hPa - - - -
1788378318 16.67° C 79% 1022.9 hPa - - - -
1788377434 17.22° C 76% 1022.9 hPa - - - -

* Rain since midnight (hover to see other rain measurements)
** Current wind speed in m/s (hover to see current wind gust speed)